createdAt,value
2019-03-27T00:00:20.343Z,1022.08
2019-03-27T00:01:00.745Z,1022.09
2019-03-27T00:01:41.157Z,1022.06
2019-03-27T00:02:21.601Z,1022.06
2019-03-27T00:03:01.997Z,1022.07
2019-03-27T00:03:42.428Z,1022.03
2019-03-27T00:04:22.842Z,1022.06
2019-03-27T00:05:03.246Z,1022.07
2019-03-27T00:05:43.662Z,1022.02
2019-03-27T00:06:24.075Z,1022.08
2019-03-27T00:07:04.505Z,1022.03
2019-03-27T00:07:44.920Z,1022.04
2019-03-27T00:08:25.333Z,1022.09
2019-03-27T00:09:05.781Z,1022.09
2019-03-27T00:09:46.214Z,1022.06
2019-03-27T00:10:26.637Z,1022.06
2019-03-27T00:11:07.046Z,1022.07
2019-03-27T00:11:47.458Z,1022.08
2019-03-27T00:12:27.899Z,1022.05
2019-03-27T00:13:08.348Z,1022.04
2019-03-27T00:13:48.779Z,1022.03
2019-03-27T00:14:29.176Z,1022.03
2019-03-27T00:15:12.955Z,1022.04
2019-03-27T00:15:49.983Z,1022.04
2019-03-27T00:16:30.390Z,1022.05
2019-03-27T00:17:10.842Z,1022.06
2019-03-27T00:17:51.259Z,1022.07
2019-03-27T00:18:31.660Z,1022.04
2019-03-27T00:19:12.131Z,1022.09
2019-03-27T00:19:52.514Z,1022.07
2019-03-27T00:20:32.905Z,1022.08
2019-03-27T00:21:13.328Z,1022.06
2019-03-27T00:21:53.767Z,1022.06
2019-03-27T00:22:34.187Z,1022.08
2019-03-27T00:23:14.647Z,1022.07
2019-03-27T00:23:55.038Z,1022.07
2019-03-27T00:24:35.456Z,1022.04
2019-03-27T00:25:15.879Z,1022.04
2019-03-27T00:25:56.338Z,1022.04
2019-03-27T00:26:36.766Z,1022.06
2019-03-27T00:27:17.233Z,1021.99
2019-03-27T00:27:57.646Z,1022.04
2019-03-27T00:28:38.076Z,1021.97
2019-03-27T00:29:18.507Z,1022.01
2019-03-27T00:29:58.928Z,1022
2019-03-27T00:30:39.332Z,1022.02
2019-03-27T00:31:19.803Z,1022
2019-03-27T00:32:00.182Z,1021.97
2019-03-27T00:32:40.593Z,1022.02
2019-03-27T00:33:21.046Z,1022.03
2019-03-27T00:34:01.468Z,1021.95
2019-03-27T00:34:41.865Z,1021.99
2019-03-27T00:35:22.299Z,1022
2019-03-27T00:36:02.708Z,1021.98
2019-03-27T00:36:43.155Z,1022.01
2019-03-27T00:37:23.579Z,1021.99
2019-03-27T00:38:03.995Z,1021.97
2019-03-27T00:38:44.411Z,1021.98
2019-03-27T00:39:24.859Z,1022.03
2019-03-27T00:40:05.262Z,1022.01
2019-03-27T00:40:45.675Z,1022.01
2019-03-27T00:41:26.139Z,1022.02
2019-03-27T00:42:06.515Z,1022
2019-03-27T00:42:46.965Z,1022.02
2019-03-27T00:43:27.394Z,1022.04
2019-03-27T00:44:07.815Z,1022
2019-03-27T00:44:48.219Z,1021.99
2019-03-27T00:45:28.683Z,1021.96
2019-03-27T00:46:09.060Z,1022.01
2019-03-27T00:46:49.460Z,1021.97
2019-03-27T00:47:29.893Z,1022.02
2019-03-27T00:48:10.302Z,1021.97
2019-03-27T00:48:50.723Z,1021.98
2019-03-27T00:49:31.134Z,1022.01
2019-03-27T00:50:11.570Z,1022
2019-03-27T00:50:52.173Z,1022.03
2019-03-27T00:51:32.590Z,1022
2019-03-27T00:52:13.020Z,1022.04
2019-03-27T00:52:53.434Z,1022.04
2019-03-27T00:53:33.857Z,1022.05
2019-03-27T00:54:14.272Z,1022.04
2019-03-27T00:54:54.692Z,1022.02
2019-03-27T00:55:35.130Z,1022.05
2019-03-27T00:56:15.546Z,1021.97
2019-03-27T00:56:55.980Z,1022.01
2019-03-27T00:57:36.402Z,1021.99
2019-03-27T00:58:16.832Z,1021.98
2019-03-27T00:58:57.254Z,1022
2019-03-27T00:59:37.660Z,1021.98
2019-03-27T01:00:18.083Z,1021.98
2019-03-27T01:00:58.499Z,1022.01
2019-03-27T01:01:38.919Z,1022.04
2019-03-27T01:02:19.334Z,1022.04
2019-03-27T01:02:59.761Z,1022.04
2019-03-27T01:03:40.188Z,1022.04
2019-03-27T01:04:20.584Z,1022.01
2019-03-27T01:05:01.002Z,1022.01
2019-03-27T01:05:41.442Z,1021.96
2019-03-27T01:06:21.872Z,1021.93
2019-03-27T01:07:02.299Z,1021.94
2019-03-27T01:07:42.733Z,1021.91
2019-03-27T01:08:23.139Z,1021.9
2019-03-27T01:09:03.567Z,1021.9
2019-03-27T01:09:43.974Z,1021.91
2019-03-27T01:10:24.403Z,1021.93
2019-03-27T01:11:04.850Z,1021.93
2019-03-27T01:11:45.258Z,1021.93
2019-03-27T01:12:25.681Z,1021.92
2019-03-27T01:13:06.104Z,1021.94
2019-03-27T01:13:46.531Z,1021.95
2019-03-27T01:14:26.963Z,1021.97
2019-03-27T01:15:07.377Z,1021.94
2019-03-27T01:15:47.783Z,1021.96
2019-03-27T01:16:28.247Z,1021.98
2019-03-27T01:17:08.638Z,1021.99
2019-03-27T01:17:49.058Z,1021.94
2019-03-27T01:18:29.495Z,1021.94
2019-03-27T01:19:09.934Z,1021.93
2019-03-27T01:19:50.357Z,1021.95
2019-03-27T01:20:30.775Z,1021.91
2019-03-27T01:21:11.176Z,1021.94
2019-03-27T01:21:51.604Z,1021.97
2019-03-27T01:22:32.037Z,1021.94
2019-03-27T01:23:12.421Z,1021.91
2019-03-27T01:23:52.852Z,1021.94
2019-03-27T01:24:33.245Z,1021.89
2019-03-27T01:25:13.667Z,1021.91
2019-03-27T01:25:54.086Z,1021.87
2019-03-27T01:26:34.489Z,1021.86
2019-03-27T01:27:14.908Z,1021.89
2019-03-27T01:27:55.313Z,1021.91
2019-03-27T01:28:35.721Z,1021.89
2019-03-27T01:29:16.116Z,1021.87
2019-03-27T01:29:56.571Z,1021.89
2019-03-27T01:30:36.944Z,1021.88
2019-03-27T01:31:17.350Z,1021.87
2019-03-27T01:31:57.770Z,1021.84
2019-03-27T01:32:38.214Z,1021.85
2019-03-27T01:33:18.591Z,1021.85
2019-03-27T01:33:58.974Z,1021.83
2019-03-27T01:34:39.395Z,1021.82
2019-03-27T01:35:19.819Z,1021.79
2019-03-27T01:36:00.273Z,1021.79
2019-03-27T01:36:40.677Z,1021.79
2019-03-27T01:37:21.116Z,1021.79
2019-03-27T01:38:01.533Z,1021.76
2019-03-27T01:38:41.951Z,1021.82
2019-03-27T01:39:22.369Z,1021.8
2019-03-27T01:40:02.800Z,1021.78
2019-03-27T01:40:43.232Z,1021.76
2019-03-27T01:41:23.705Z,1021.8
2019-03-27T01:42:04.082Z,1021.78
2019-03-27T01:42:44.475Z,1021.78
2019-03-27T01:43:24.895Z,1021.78
2019-03-27T01:44:05.322Z,1021.8
2019-03-27T01:44:45.750Z,1021.83
2019-03-27T01:45:26.185Z,1021.86
2019-03-27T01:46:06.584Z,1021.83
2019-03-27T01:46:47.004Z,1021.83
2019-03-27T01:47:27.450Z,1021.86
2019-03-27T01:48:07.882Z,1021.93
2019-03-27T01:48:48.297Z,1021.93
2019-03-27T01:49:28.715Z,1021.89
2019-03-27T01:50:09.133Z,1021.91
2019-03-27T01:50:49.561Z,1021.9
2019-03-27T01:51:29.976Z,1021.92
2019-03-27T01:52:10.398Z,1021.94
2019-03-27T01:52:50.828Z,1021.95
2019-03-27T01:53:31.241Z,1021.95
2019-03-27T01:54:11.664Z,1021.93
2019-03-27T01:54:52.094Z,1021.97
2019-03-27T01:55:32.499Z,1021.92
2019-03-27T01:56:12.933Z,1021.97
2019-03-27T01:56:53.355Z,1021.94
2019-03-27T01:57:33.777Z,1021.92
2019-03-27T01:58:14.269Z,1021.92
2019-03-27T01:58:54.681Z,1021.9
2019-03-27T01:59:35.103Z,1021.91
2019-03-27T02:00:15.537Z,1021.88
2019-03-27T02:00:55.967Z,1021.89
2019-03-27T02:01:36.396Z,1021.88
2019-03-27T02:02:16.782Z,1021.87
2019-03-27T02:02:57.215Z,1021.87
2019-03-27T02:03:37.641Z,1021.89
2019-03-27T02:04:18.051Z,1021.87
2019-03-27T02:04:58.464Z,1021.85
2019-03-27T02:05:38.876Z,1021.88
2019-03-27T02:06:19.303Z,1021.88
2019-03-27T02:06:59.718Z,1021.87
2019-03-27T02:07:40.153Z,1021.91
2019-03-27T02:08:20.585Z,1021.92
2019-03-27T02:09:00.998Z,1021.92
2019-03-27T02:09:41.425Z,1021.9
2019-03-27T02:10:21.889Z,1021.9
2019-03-27T02:11:02.251Z,1021.86
2019-03-27T02:11:42.683Z,1021.87
2019-03-27T02:12:23.106Z,1021.89
2019-03-27T02:13:03.568Z,1021.82
2019-03-27T02:13:43.990Z,1021.87
2019-03-27T02:14:24.418Z,1021.9
2019-03-27T02:15:04.814Z,1021.86
2019-03-27T02:15:45.270Z,1021.93
2019-03-27T02:16:25.658Z,1021.89
2019-03-27T02:17:06.098Z,1021.93
2019-03-27T02:17:46.539Z,1021.92
2019-03-27T02:18:26.931Z,1021.93
2019-03-27T02:19:07.392Z,1021.95
2019-03-27T02:19:47.775Z,1021.98
2019-03-27T02:20:28.201Z,1021.99
2019-03-27T02:21:08.621Z,1021.97
2019-03-27T02:21:49.025Z,1021.95
2019-03-27T02:22:29.438Z,1021.98
2019-03-27T02:23:09.853Z,1022
2019-03-27T02:23:50.315Z,1022
2019-03-27T02:24:30.774Z,1021.96
2019-03-27T02:25:11.139Z,1021.98
2019-03-27T02:25:51.554Z,1022.03
2019-03-27T02:26:31.959Z,1021.99
2019-03-27T02:27:12.385Z,1022.04
2019-03-27T02:27:52.808Z,1022.04
2019-03-27T02:28:33.212Z,1022.03
2019-03-27T02:29:13.608Z,1022.09
2019-03-27T02:29:54.009Z,1022.07
2019-03-27T02:30:34.436Z,1022.03
2019-03-27T02:31:14.859Z,1022.01
2019-03-27T02:31:55.289Z,1022.01
2019-03-27T02:32:35.776Z,1022.01
2019-03-27T02:33:16.170Z,1021.99
2019-03-27T02:33:56.598Z,1022.01
2019-03-27T02:34:37.007Z,1022.01
2019-03-27T02:35:17.422Z,1022.03
2019-03-27T02:35:57.860Z,1022.01
2019-03-27T02:36:38.254Z,1022.07
2019-03-27T02:37:18.677Z,1022.06
2019-03-27T02:37:59.101Z,1022.06
2019-03-27T02:38:39.536Z,1022.05
2019-03-27T02:39:19.935Z,1022.08
2019-03-27T02:40:00.449Z,1022.08
2019-03-27T02:40:40.789Z,1022.05
2019-03-27T02:41:21.215Z,1022.05
2019-03-27T02:42:01.634Z,1022.06
2019-03-27T02:42:42.081Z,1022.07
2019-03-27T02:43:22.438Z,1022.08
2019-03-27T02:44:02.871Z,1022.09
2019-03-27T02:44:43.300Z,1022.1
2019-03-27T02:45:23.710Z,1022.12
2019-03-27T02:46:04.139Z,1022.07
2019-03-27T02:46:44.534Z,1022.11
2019-03-27T02:47:25.031Z,1022.14
2019-03-27T02:48:05.370Z,1022.1
2019-03-27T02:48:45.793Z,1022.09
2019-03-27T02:49:26.257Z,1022.07
2019-03-27T02:50:06.684Z,1022.05
2019-03-27T02:50:47.111Z,1022.04
2019-03-27T02:51:27.581Z,1022.06
2019-03-27T02:52:08.015Z,1022.07
2019-03-27T02:52:48.460Z,1022.04
2019-03-27T02:53:28.864Z,1022.06
2019-03-27T02:54:09.441Z,1022.04
2019-03-27T02:54:49.749Z,1022.06
2019-03-27T02:55:30.145Z,1022.06
2019-03-27T02:56:10.569Z,1022.11
2019-03-27T02:56:50.988Z,1022.09
2019-03-27T02:57:31.427Z,1022.05
2019-03-27T02:59:59.499Z,1021.96
2019-03-27T03:00:39.874Z,1021.99
2019-03-27T03:01:20.330Z,1021.95
2019-03-27T03:02:00.707Z,1021.92
2019-03-27T03:02:41.118Z,1021.9
2019-03-27T03:03:21.550Z,1021.93
2019-03-27T03:04:02.006Z,1021.94
2019-03-27T03:04:42.389Z,1021.97
2019-03-27T03:05:22.940Z,1021.94
2019-03-27T03:06:03.355Z,1022
2019-03-27T03:06:43.732Z,1022
2019-03-27T03:07:24.166Z,1021.98
2019-03-27T03:08:04.578Z,1021.98
2019-03-27T03:08:45.030Z,1021.99
2019-03-27T03:09:25.480Z,1021.96
2019-03-27T03:10:05.911Z,1021.98
2019-03-27T03:10:46.281Z,1021.97
2019-03-27T03:11:26.689Z,1021.97
2019-03-27T03:12:07.100Z,1021.99
2019-03-27T03:12:47.545Z,1022.01
2019-03-27T03:13:27.931Z,1022.03
2019-03-27T03:14:08.348Z,1022
2019-03-27T03:14:48.751Z,1022.04
2019-03-27T03:15:29.160Z,1022.01
2019-03-27T03:16:09.584Z,1022
2019-03-27T03:16:49.995Z,1022.01
2019-03-27T03:17:30.406Z,1022.01
2019-03-27T03:18:10.840Z,1021.96
2019-03-27T03:18:51.267Z,1021.94
2019-03-27T03:19:31.673Z,1021.95
2019-03-27T03:20:12.089Z,1021.98
2019-03-27T03:20:52.496Z,1021.95
2019-03-27T03:21:32.910Z,1021.97
2019-03-27T03:22:13.338Z,1022.03
2019-03-27T03:22:53.866Z,1022.01
2019-03-27T03:23:34.307Z,1022.02
2019-03-27T03:24:14.669Z,1022.09
2019-03-27T03:24:55.111Z,1022.03
2019-03-27T03:25:35.480Z,1022.03
2019-03-27T03:26:15.925Z,1022.02
2019-03-27T03:26:56.333Z,1022.02
2019-03-27T03:27:36.768Z,1021.98
2019-03-27T03:28:17.161Z,1022.01
2019-03-27T03:28:57.593Z,1021.95
2019-03-27T03:29:38.037Z,1021.94
2019-03-27T03:30:18.381Z,1021.92
2019-03-27T03:30:58.784Z,1021.91
2019-03-27T03:31:39.184Z,1021.9
2019-03-27T03:32:19.617Z,1021.85
2019-03-27T03:33:00.050Z,1021.86
2019-03-27T03:33:40.402Z,1021.85
2019-03-27T03:34:20.843Z,1021.85
2019-03-27T03:35:01.241Z,1021.88
2019-03-27T03:35:41.679Z,1021.91
2019-03-27T03:36:22.073Z,1021.94
2019-03-27T03:37:02.524Z,1021.96
2019-03-27T03:37:42.933Z,1021.92
2019-03-27T03:38:23.335Z,1021.89
2019-03-27T03:39:03.728Z,1021.92
2019-03-27T03:39:44.205Z,1021.92
2019-03-27T03:40:24.635Z,1021.94
2019-03-27T03:41:04.950Z,1021.94
2019-03-27T03:41:45.374Z,1021.97
2019-03-27T03:42:25.806Z,1021.97
2019-03-27T03:43:06.161Z,1021.98
2019-03-27T03:43:46.570Z,1022.03
2019-03-27T03:44:26.984Z,1021.99
2019-03-27T03:45:07.411Z,1022.01
2019-03-27T03:45:47.845Z,1022.04
2019-03-27T03:46:28.295Z,1022.04
2019-03-27T03:47:08.674Z,1022.02
2019-03-27T03:47:49.104Z,1022.04
2019-03-27T03:48:29.507Z,1022.05
2019-03-27T03:49:09.937Z,1022.07
2019-03-27T03:49:50.346Z,1022.07
2019-03-27T03:50:30.775Z,1022.03
2019-03-27T03:51:11.205Z,1022.04
2019-03-27T03:51:51.638Z,1022.08
2019-03-27T03:52:32.041Z,1022.04
2019-03-27T03:53:12.492Z,1022.04
2019-03-27T03:53:52.908Z,1022.05
2019-03-27T03:54:33.335Z,1022.08
2019-03-27T03:55:13.772Z,1022.03
2019-03-27T03:55:54.165Z,1022.07
2019-03-27T03:56:34.584Z,1022.05
2019-03-27T03:57:15.011Z,1022.07
2019-03-27T03:57:55.443Z,1022.08
2019-03-27T03:58:35.861Z,1022.1
2019-03-27T03:59:16.268Z,1022.12
2019-03-27T03:59:56.679Z,1022.1
2019-03-27T04:00:37.092Z,1022.11
2019-03-27T04:01:17.514Z,1022.1
2019-03-27T04:01:57.944Z,1022.12
2019-03-27T04:02:38.389Z,1022.09
2019-03-27T04:03:18.804Z,1022.09
2019-03-27T04:03:59.246Z,1022.1
2019-03-27T04:04:39.673Z,1022.09
2019-03-27T04:05:20.133Z,1022.06
2019-03-27T04:06:00.509Z,1022.1
2019-03-27T04:06:40.953Z,1022.08
2019-03-27T04:07:21.341Z,1022.07
2019-03-27T04:08:01.771Z,1022.09
2019-03-27T04:08:42.196Z,1022.08
2019-03-27T04:09:22.629Z,1022.07
2019-03-27T04:10:03.063Z,1022.08
2019-03-27T04:10:43.484Z,1022.07
2019-03-27T04:11:23.924Z,1022.14
2019-03-27T04:12:04.339Z,1022.14
2019-03-27T04:12:44.749Z,1022.12
2019-03-27T04:13:25.207Z,1022.14
2019-03-27T04:14:05.608Z,1022.12
2019-03-27T04:14:46.008Z,1022.17
2019-03-27T04:15:26.426Z,1022.16
2019-03-27T04:16:06.844Z,1022.16
2019-03-27T04:16:47.298Z,1022.17
2019-03-27T04:17:27.693Z,1022.15
2019-03-27T04:18:08.125Z,1022.15
2019-03-27T04:18:48.538Z,1022.18
2019-03-27T04:19:29.107Z,1022.23
2019-03-27T04:20:09.524Z,1022.23
2019-03-27T04:20:49.946Z,1022.26
2019-03-27T04:21:30.390Z,1022.23
2019-03-27T04:22:10.789Z,1022.3
2019-03-27T04:22:51.215Z,1022.3
2019-03-27T04:23:31.632Z,1022.31
2019-03-27T04:24:12.040Z,1022.32
2019-03-27T04:24:52.454Z,1022.26
2019-03-27T04:26:00.241Z,1022.27
2019-03-27T04:26:13.309Z,1022.27
2019-03-27T04:26:53.896Z,1022.26
2019-03-27T04:27:34.129Z,1022.28
2019-03-27T04:28:14.549Z,1022.32
2019-03-27T04:28:54.960Z,1022.31
2019-03-27T05:06:43.994Z,1022.53
2019-03-27T05:07:24.463Z,1022.55
2019-03-27T05:08:04.879Z,1022.56
2019-03-27T05:08:45.300Z,1022.56
2019-03-27T05:09:25.708Z,1022.61
2019-03-27T05:10:06.116Z,1022.6
2019-03-27T05:12:18.936Z,1022.64
2019-03-27T05:12:59.343Z,1022.64
2019-03-27T05:13:39.714Z,1022.64
2019-03-27T05:14:20.118Z,1022.61
2019-03-27T05:15:00.555Z,1022.63
2019-03-27T05:15:40.933Z,1022.65
2019-03-27T05:16:21.376Z,1022.67
2019-03-27T05:17:01.787Z,1022.66
2019-03-27T05:17:46.034Z,1022.68
2019-03-27T05:18:22.618Z,1022.66
2019-03-27T05:19:03.059Z,1022.69
2019-03-27T05:19:43.469Z,1022.67
2019-03-27T05:20:23.856Z,1022.69
2019-03-27T05:21:04.263Z,1022.71
2019-03-27T05:21:44.687Z,1022.69
2019-03-27T05:22:25.106Z,1022.69
2019-03-27T05:23:05.509Z,1022.68
2019-03-27T05:23:45.931Z,1022.68
2019-03-27T05:24:26.335Z,1022.7
2019-03-27T05:25:06.757Z,1022.71
2019-03-27T05:25:47.181Z,1022.72
2019-03-27T05:26:27.635Z,1022.71
2019-03-27T05:27:08.065Z,1022.75
2019-03-27T05:27:48.487Z,1022.73
2019-03-27T05:28:28.937Z,1022.73
2019-03-27T05:29:09.382Z,1022.73
2019-03-27T05:29:49.809Z,1022.73
2019-03-27T05:30:30.243Z,1022.74
2019-03-27T05:31:10.748Z,1022.72
2019-03-27T05:31:51.122Z,1022.75
2019-03-27T05:32:31.551Z,1022.76
2019-03-27T05:33:11.949Z,1022.77
2019-03-27T05:33:52.379Z,1022.79
2019-03-27T05:34:32.801Z,1022.76
2019-03-27T05:35:13.221Z,1022.76
2019-03-27T05:35:53.643Z,1022.78
2019-03-27T05:36:34.073Z,1022.81
2019-03-27T05:37:14.492Z,1022.76
2019-03-27T05:37:54.903Z,1022.76
2019-03-27T05:38:35.332Z,1022.74
2019-03-27T05:39:15.759Z,1022.75
2019-03-27T05:39:56.189Z,1022.76
2019-03-27T05:40:36.651Z,1022.77
2019-03-27T05:41:17.008Z,1022.75
2019-03-27T05:41:57.454Z,1022.75
2019-03-27T05:42:37.923Z,1022.78
2019-03-27T05:43:18.304Z,1022.74
2019-03-27T05:43:58.737Z,1022.77
2019-03-27T05:44:39.158Z,1022.78
2019-03-27T05:45:19.616Z,1022.71
2019-03-27T05:45:59.992Z,1022.76
2019-03-27T05:46:40.431Z,1022.76
2019-03-27T05:47:20.804Z,1022.79
2019-03-27T05:48:01.219Z,1022.75
2019-03-27T05:48:41.710Z,1022.82
2019-03-27T05:49:22.092Z,1022.79
2019-03-27T05:50:02.542Z,1022.79
2019-03-27T05:50:42.935Z,1022.79
2019-03-27T05:51:23.415Z,1022.79
2019-03-27T05:52:03.800Z,1022.82
2019-03-27T05:52:44.189Z,1022.8
2019-03-27T05:53:24.600Z,1022.81
2019-03-27T05:54:05.033Z,1022.8
2019-03-27T05:54:45.426Z,1022.82
2019-03-27T05:55:26.651Z,1022.83
2019-03-27T05:56:06.233Z,1022.85
2019-03-27T05:56:46.611Z,1022.85
2019-03-27T05:57:27.009Z,1022.85
2019-03-27T05:58:07.455Z,1022.85
2019-03-27T05:58:47.822Z,1022.82
2019-03-27T05:59:28.220Z,1022.82
2019-03-27T06:00:08.676Z,1022.82
2019-03-27T06:00:49.049Z,1022.83
2019-03-27T06:01:29.481Z,1022.83
2019-03-27T06:02:09.895Z,1022.87
2019-03-27T06:02:50.315Z,1022.88
2019-03-27T06:03:30.744Z,1022.84
2019-03-27T06:04:11.175Z,1022.94
2019-03-27T06:04:51.604Z,1022.94
2019-03-27T06:05:32.080Z,1022.97
2019-03-27T06:06:12.462Z,1022.99
2019-03-27T06:06:52.897Z,1023
2019-03-27T06:07:33.301Z,1023.03
2019-03-27T06:08:15.329Z,1022.99
2019-03-27T06:08:57.797Z,1023.01
2019-03-27T06:09:38.300Z,1023.03
2019-03-27T06:10:18.740Z,1023.04
2019-03-27T06:10:59.162Z,1023.07
2019-03-27T06:11:39.745Z,1023.06
2019-03-27T06:12:20.153Z,1023.08
2019-03-27T06:13:00.585Z,1023.08
2019-03-27T06:13:41.039Z,1023.1
2019-03-27T06:14:21.464Z,1023.14
2019-03-27T06:15:01.882Z,1023.13
2019-03-27T06:15:44.944Z,1023.15
2019-03-27T06:16:22.734Z,1023.17
2019-03-27T06:17:03.153Z,1023.15
2019-03-27T06:17:43.582Z,1023.16
2019-03-27T06:18:24.010Z,1023.17
2019-03-27T06:19:04.411Z,1023.19
2019-03-27T06:19:44.820Z,1023.17
2019-03-27T06:20:25.247Z,1023.18
2019-03-27T06:21:05.674Z,1023.2
2019-03-27T06:21:46.066Z,1023.14
2019-03-27T06:22:26.511Z,1023.16
2019-03-27T06:23:06.917Z,1023.15
2019-03-27T06:23:48.374Z,1023.18
2019-03-27T06:24:28.804Z,1023.16
2019-03-27T06:25:09.224Z,1023.17
2019-03-27T06:25:49.708Z,1023.17
2019-03-27T06:26:30.060Z,1023.2
2019-03-27T06:27:10.494Z,1023.19
2019-03-27T06:27:50.898Z,1023.14
2019-03-27T06:28:31.316Z,1023.16
2019-03-27T06:29:11.747Z,1023.15
2019-03-27T06:29:52.186Z,1023.14
2019-03-27T06:30:32.586Z,1023.16
2019-03-27T06:31:13.522Z,1023.13
2019-03-27T06:31:53.978Z,1023.12
2019-03-27T06:32:34.386Z,1023.14
2019-03-27T06:33:14.794Z,1023.15
2019-03-27T06:33:55.201Z,1023.18
2019-03-27T06:34:35.637Z,1023.19
2019-03-27T06:35:16.063Z,1023.2
2019-03-27T06:35:56.496Z,1023.2
2019-03-27T06:36:36.859Z,1023.18
2019-03-27T06:37:17.275Z,1023.2
2019-03-27T06:37:57.677Z,1023.2
2019-03-27T06:38:38.090Z,1023.17
2019-03-27T06:39:18.502Z,1023.18
2019-03-27T06:39:58.870Z,1023.19
2019-03-27T06:40:39.767Z,1023.2
2019-03-27T06:41:19.717Z,1023.16
2019-03-27T06:42:00.117Z,1023.17
2019-03-27T06:42:40.544Z,1023.19
2019-03-27T06:43:20.974Z,1023.17
2019-03-27T06:44:01.397Z,1023.17
2019-03-27T06:44:41.799Z,1023.21
2019-03-27T06:45:22.233Z,1023.21
2019-03-27T06:46:02.680Z,1023.18
2019-03-27T06:46:43.047Z,1023.18
2019-03-27T06:47:23.459Z,1023.17
2019-03-27T06:48:03.866Z,1023.22
2019-03-27T06:48:44.292Z,1023.2
2019-03-27T06:49:24.712Z,1023.25
2019-03-27T06:50:05.628Z,1023.21
2019-03-27T06:50:46.266Z,1023.21
2019-03-27T06:51:39.158Z,1023.23
2019-03-27T06:53:51.576Z,1023.2
2019-03-27T06:54:32.013Z,1023.22
2019-03-27T06:55:12.463Z,1023.22
2019-03-27T06:55:52.860Z,1023.24
2019-03-27T06:56:34.259Z,1023.24
2019-03-27T06:57:14.719Z,1023.19
2019-03-27T06:59:13.061Z,1023.22
2019-03-27T06:59:53.448Z,1023.23
2019-03-27T07:00:33.864Z,1023.25
2019-03-27T07:01:14.324Z,1023.19
2019-03-27T07:01:55.417Z,1023.28
2019-03-27T07:02:35.230Z,1023.27
2019-03-27T07:03:15.787Z,1023.28
2019-03-27T07:04:09.479Z,1023.31
2019-03-27T07:04:36.797Z,1023.31
2019-03-27T07:05:17.234Z,1023.33
2019-03-27T07:05:57.665Z,1023.36
2019-03-27T07:06:39.113Z,1023.39
2019-03-27T07:07:19.495Z,1023.4
2019-03-27T07:08:00.020Z,1023.41
2019-03-27T07:08:40.670Z,1023.44
2019-03-27T07:09:21.156Z,1023.45
2019-03-27T07:10:01.694Z,1023.45
2019-03-27T07:10:42.059Z,1023.48
2019-03-27T07:11:22.643Z,1023.48
2019-03-27T07:12:03.008Z,1023.5
2019-03-27T07:12:43.621Z,1023.53
2019-03-27T07:13:23.977Z,1023.58
2019-03-27T07:14:04.515Z,1023.53
2019-03-27T07:14:44.943Z,1023.53
2019-03-27T07:15:25.651Z,1023.55
2019-03-27T07:16:06.588Z,1023.59
2019-03-27T07:16:47.205Z,1023.57
2019-03-27T07:17:29.211Z,1023.58
2019-03-27T07:18:09.955Z,1023.62
2019-03-27T07:20:29.004Z,1023.65
2019-03-27T07:21:09.600Z,1023.67
2019-03-27T07:21:50.202Z,1023.65
2019-03-27T07:22:30.657Z,1023.7
2019-03-27T07:23:11.164Z,1023.71
2019-03-27T07:23:51.579Z,1023.71
2019-03-27T07:24:32.472Z,1023.74
2019-03-27T07:25:12.909Z,1023.73
2019-03-27T07:25:53.248Z,1023.76
2019-03-27T07:26:34.492Z,1023.76
2019-03-27T07:27:15.754Z,1023.77
2019-03-27T07:29:44.954Z,1023.75
2019-03-27T07:30:25.365Z,1023.77
2019-03-27T07:31:05.834Z,1023.78
2019-03-27T07:31:47.927Z,1023.79
2019-03-27T07:32:28.289Z,1023.76
2019-03-27T07:33:08.679Z,1023.79
2019-03-27T07:35:37.611Z,1023.84
2019-03-27T07:36:19.532Z,1023.83
2019-03-27T07:37:00.801Z,1023.83
2019-03-27T07:37:46.086Z,1023.84
2019-03-27T07:38:26.046Z,1023.84
2019-03-27T07:39:11.095Z,1023.83
2019-03-27T07:39:47.269Z,1023.86
2019-03-27T07:40:27.721Z,1023.87
2019-03-27T07:41:09.245Z,1023.87
2019-03-27T07:41:50.074Z,1023.85
2019-03-27T07:42:31.169Z,1023.83
2019-03-27T07:43:11.389Z,1023.83
2019-03-27T07:43:52.291Z,1023.81
2019-03-27T07:44:33.087Z,1023.82
2019-03-27T07:45:14.197Z,1023.8
2019-03-27T07:45:54.559Z,1023.8
2019-03-27T07:46:35.394Z,1023.8
2019-03-27T07:47:16.376Z,1023.79
2019-03-27T07:47:56.833Z,1023.76
2019-03-27T07:48:37.832Z,1023.79
2019-03-27T07:49:18.056Z,1023.83
2019-03-27T07:49:58.836Z,1023.82
2019-03-27T07:50:39.131Z,1023.8
2019-03-27T07:51:19.626Z,1023.82
2019-03-27T07:52:00.444Z,1023.83
2019-03-27T07:52:40.856Z,1023.8
2019-03-27T07:53:22.539Z,1023.84
2019-03-27T07:54:03.450Z,1023.82
2019-03-27T07:54:44.675Z,1023.77
2019-03-27T07:55:25.363Z,1023.79
2019-03-27T07:56:29.268Z,1023.8
2019-03-27T07:57:12.678Z,1023.77
2019-03-27T07:57:53.073Z,1023.78
2019-03-27T07:58:33.460Z,1023.81
2019-03-27T07:59:14.275Z,1023.82
2019-03-27T07:59:54.665Z,1023.8
2019-03-27T08:00:35.079Z,1023.81
2019-03-27T08:01:17.218Z,1023.81
2019-03-27T08:01:58.071Z,1023.83
2019-03-27T08:02:38.759Z,1023.86
2019-03-27T08:03:19.421Z,1023.82
2019-03-27T08:04:01.749Z,1023.83
2019-03-27T08:04:43.071Z,1023.83
2019-03-27T08:05:23.676Z,1023.82
2019-03-27T08:06:04.235Z,1023.82
2019-03-27T08:06:45.140Z,1023.84
2019-03-27T08:07:26.920Z,1023.81
2019-03-27T08:08:06.455Z,1023.83
2019-03-27T08:08:47.072Z,1023.75
2019-03-27T08:09:27.712Z,1023.77
2019-03-27T08:10:08.898Z,1023.78
2019-03-27T08:10:56.479Z,1023.77
2019-03-27T08:11:37.510Z,1023.79
2019-03-27T08:12:18.179Z,1023.8
2019-03-27T08:13:01.590Z,1023.79
2019-03-27T08:13:42.063Z,1023.75
2019-03-27T08:14:22.554Z,1023.78
2019-03-27T08:15:03.401Z,1023.75
2019-03-27T08:15:43.911Z,1023.74
2019-03-27T08:16:24.363Z,1023.77
2019-03-27T08:17:05.023Z,1023.76
2019-03-27T08:17:45.365Z,1023.73
2019-03-27T08:18:25.855Z,1023.74
2019-03-27T08:19:08.103Z,1023.77
2019-03-27T08:19:48.614Z,1023.74
2019-03-27T08:21:23.521Z,1023.76
2019-03-27T08:22:04.032Z,1023.72
2019-03-27T08:22:44.426Z,1023.7
2019-03-27T08:23:24.890Z,1023.7
2019-03-27T08:24:05.269Z,1023.72
2019-03-27T08:24:45.796Z,1023.74
2019-03-27T08:25:27.210Z,1023.71
2019-03-27T08:26:07.827Z,1023.73
2019-03-27T08:26:48.302Z,1023.72
2019-03-27T08:27:28.755Z,1023.75
2019-03-27T08:28:09.298Z,1023.75
2019-03-27T08:28:49.742Z,1023.75
2019-03-27T08:29:30.213Z,1023.77
2019-03-27T08:30:10.682Z,1023.76
2019-03-27T08:30:52.228Z,1023.76
2019-03-27T08:31:32.660Z,1023.77
2019-03-27T08:32:13.056Z,1023.76
2019-03-27T08:32:53.515Z,1023.77
2019-03-27T08:33:33.967Z,1023.73
2019-03-27T08:34:14.609Z,1023.77
2019-03-27T08:34:55.135Z,1023.77
2019-03-27T08:35:36.256Z,1023.75
2019-03-27T08:36:16.625Z,1023.8
2019-03-27T08:36:57.425Z,1023.8
2019-03-27T08:37:38.334Z,1023.76
2019-03-27T08:38:19.056Z,1023.76
2019-03-27T08:38:59.644Z,1023.75
2019-03-27T08:39:40.098Z,1023.72
2019-03-27T08:40:20.528Z,1023.77
2019-03-27T08:41:01.828Z,1023.74
2019-03-27T08:41:42.356Z,1023.77
2019-03-27T08:42:22.782Z,1023.77
2019-03-27T08:43:03.177Z,1023.79
2019-03-27T08:43:44.098Z,1023.78
2019-03-27T08:44:24.630Z,1023.85
2019-03-27T08:45:05.700Z,1023.83
2019-03-27T08:45:45.782Z,1023.86
2019-03-27T08:46:28.160Z,1023.87
2019-03-27T08:47:09.674Z,1023.89
2019-03-27T08:47:49.766Z,1023.89
2019-03-27T08:48:35.289Z,1023.9
2019-03-27T08:49:21.538Z,1023.92
2019-03-27T08:49:56.485Z,1023.9
2019-03-27T08:50:37.086Z,1023.93
2019-03-27T08:51:19.444Z,1023.9
2019-03-27T08:52:00.164Z,1023.93
2019-03-27T08:52:41.942Z,1023.96
2019-03-27T08:53:22.045Z,1023.97
2019-03-27T08:54:02.696Z,1023.95
2019-03-27T08:54:43.270Z,1024.03
2019-03-27T08:55:23.830Z,1023.97
2019-03-27T08:56:05.156Z,1024.01
2019-03-27T08:56:46.249Z,1023.98
2019-03-27T08:57:26.434Z,1023.96
2019-03-27T08:58:07.161Z,1023.96
2019-03-27T08:58:48.549Z,1023.98
2019-03-27T08:59:29.423Z,1023.97
2019-03-27T09:00:10.833Z,1023.98
2019-03-27T09:00:51.504Z,1023.98
2019-03-27T09:01:32.096Z,1024.02
2019-03-27T09:02:12.933Z,1024.05